Time;durP1;ratioP1;P1;durP2;ratioP2;P2;SDS_P1;SDS_P2;PMS_P1;PMS_P2;Temp;Humidity;BMP_temperature;BMP_pressure;BME280_temperature;BME280_humidity;BME280_pressure;Samples;Min_cycle;Max_cycle;Signal;HPM_P1;HPM_P2
2023/06/16 00:01:31;;;;;;;4.13;3.17;;;;;;;;;;5121253;27;20392;-82
2023/06/16 00:03:59;;;;;;;4.35;3.10;;;;;;;;;;5125061;27;20398;-83
2023/06/16 00:06:29;;;;;;;4.60;3.57;;;;;;;;;;5122365;27;20470;-82
2023/06/16 00:08:58;;;;;;;3.90;3.50;;;;;;;;;;5124985;28;20857;-81
2023/06/16 00:11:27;;;;;;;4.03;3.50;;;;;;;;;;5125064;28;20415;-82
2023/06/16 00:13:55;;;;;;;4.23;3.30;;;;;;;;;;5120639;27;20404;-82
2023/06/16 00:16:23;;;;;;;4.33;3.20;;;;;;;;;;5123475;28;20489;-83
2023/06/16 00:18:57;;;;;;;3.28;2.97;;;;;;;;;;5106726;28;20400;-82
2023/06/16 00:21:28;;;;;;;3.45;3.15;;;;;;;;;;5124743;28;20893;-82
2023/06/16 00:23:56;;;;;;;3.88;3.25;;;;;;;;;;5124764;28;20927;-83
2023/06/16 00:26:24;;;;;;;4.75;3.50;;;;;;;;;;5119235;27;20404;-83
2023/06/16 00:28:51;;;;;;;3.58;3.03;;;;;;;;;;5124044;27;20962;-81
2023/06/16 00:31:18;;;;;;;6.50;3.30;;;;;;;;;;5127845;27;20403;-83
2023/06/16 00:33:46;;;;;;;4.72;3.67;;;;;;;;;;5129278;27;20446;-82
2023/06/16 00:36:13;;;;;;;4.53;3.22;;;;;;;;;;5111551;27;20399;-83
2023/06/16 00:38:40;;;;;;;4.13;3.38;;;;;;;;;;5122281;27;20934;-82
2023/06/16 00:41:08;;;;;;;5.82;3.63;;;;;;;;;;5127240;27;20404;-83
2023/06/16 00:43:35;;;;;;;6.72;3.60;;;;;;;;;;5128806;27;20399;-82
2023/06/16 00:46:05;;;;;;;4.50;3.60;;;;;;;;;;5129024;27;20385;-82
2023/06/16 00:48:32;;;;;;;5.65;3.28;;;;;;;;;;5120968;27;20393;-83
2023/06/16 00:50:59;;;;;;;4.03;3.50;;;;;;;;;;5128607;27;20421;-83
2023/06/16 00:53:30;;;;;;;5.65;3.97;;;;;;;;;;5128452;27;21141;-82
2023/06/16 00:55:58;;;;;;;5.35;3.45;;;;;;;;;;5128819;27;20396;-83
2023/06/16 00:58:31;;;;;;;5.50;3.42;;;;;;;;;;5108977;27;20810;-82
2023/06/16 01:00:59;;;;;;;5.03;3.33;;;;;;;;;;5144942;27;20434;-82
2023/06/16 01:03:27;;;;;;;6.18;3.75;;;;;;;;;;5149683;27;20391;-82
2023/06/16 01:05:56;;;;;;;4.40;3.30;;;;;;;;;;5149529;27;20383;-82
2023/06/16 01:08:28;;;;;;;5.03;3.33;;;;;;;;;;5146311;27;20392;-83
2023/06/16 01:11:06;;;;;;;5.25;3.55;;;;;;;;;;5142766;27;20428;-82
2023/06/16 01:13:39;;;;;;;4.50;3.50;;;;;;;;;;5119933;27;20397;-82
2023/06/16 01:16:08;;;;;;;4.80;3.53;;;;;;;;;;5127816;27;20549;-82
2023/06/16 01:18:36;;;;;;;6.28;3.38;;;;;;;;;;5125030;27;20389;-82
2023/06/16 01:21:18;;;;;;;5.15;3.65;;;;;;;;;;5128184;27;20469;-83
2023/06/16 01:23:58;;;;;;;4.93;3.78;;;;;;;;;;5127683;27;20428;-82
2023/06/16 01:26:28;;;;;;;5.18;3.55;;;;;;;;;;5121568;27;20389;-82
2023/06/16 01:28:56;;;;;;;5.88;3.65;;;;;;;;;;5126391;27;20385;-82
2023/06/16 01:31:28;;;;;;;4.10;3.40;;;;;;;;;;5127155;27;20814;-83
2023/06/16 01:33:58;;;;;;;4.68;3.40;;;;;;;;;;5128119;27;20385;-82
2023/06/16 01:36:25;;;;;;;4.45;3.40;;;;;;;;;;5125489;27;20395;-82
2023/06/16 01:38:55;;;;;;;6.32;3.47;;;;;;;;;;5127905;27;20384;-83
2023/06/16 01:41:25;;;;;;;5.67;3.60;;;;;;;;;;5127360;27;20397;-83
2023/06/16 01:43:52;;;;;;;3.90;3.55;;;;;;;;;;5127466;27;20483;-83
2023/06/16 01:46:20;;;;;;;6.20;3.53;;;;;;;;;;5125683;27;20393;-84
2023/06/16 01:48:48;;;;;;;7.35;3.67;;;;;;;;;;5124109;27;20385;-82
2023/06/16 01:51:15;;;;;;;3.70;3.40;;;;;;;;;;5127791;27;20458;-82
2023/06/16 01:53:44;;;;;;;4.50;3.40;;;;;;;;;;5127898;27;20388;-83
2023/06/16 01:56:12;;;;;;;5.00;3.45;;;;;;;;;;5128162;27;20397;-83
2023/06/16 01:58:39;;;;;;;6.70;3.30;;;;;;;;;;5124854;27;20819;-84
2023/06/16 02:01:07;;;;;;;6.28;4.00;;;;;;;;;;5145060;27;20526;-83
2023/06/16 02:03:35;;;;;;;4.93;3.63;;;;;;;;;;5148085;27;20468;-83
2023/06/16 02:06:05;;;;;;;4.83;3.50;;;;;;;;;;5129899;27;20570;-82
2023/06/16 02:08:34;;;;;;;4.10;3.40;;;;;;;;;;5144591;27;20467;-83
2023/06/16 02:11:01;;;;;;;5.00;3.50;;;;;;;;;;5147988;27;20757;-83
2023/06/16 02:13:31;;;;;;;4.20;3.47;;;;;;;;;;5143198;27;20981;-83
2023/06/16 02:15:59;;;;;;;4.40;3.35;;;;;;;;;;5148298;27;20418;-84
2023/06/16 02:18:27;;;;;;;4.70;3.30;;;;;;;;;;5137540;27;20401;-83
2023/06/16 02:20:55;;;;;;;4.78;3.40;;;;;;;;;;5107363;27;20397;-83
2023/06/16 02:23:22;;;;;;;6.43;3.78;;;;;;;;;;5127187;27;20389;-83
2023/06/16 02:25:50;;;;;;;3.97;3.53;;;;;;;;;;5123139;27;20425;-83
2023/06/16 02:28:17;;;;;;;4.03;3.60;;;;;;;;;;5108320;27;20487;-83
2023/06/16 02:30:45;;;;;;;5.13;3.70;;;;;;;;;;5124900;27;20393;-84
2023/06/16 02:33:12;;;;;;;4.50;3.80;;;;;;;;;;5126601;27;20403;-83
2023/06/16 02:35:40;;;;;;;4.55;3.50;;;;;;;;;;5127338;27;20389;-83
2023/06/16 02:38:09;;;;;;;5.35;3.90;;;;;;;;;;5123152;27;20941;-82
2023/06/16 02:40:39;;;;;;;4.30;3.50;;;;;;;;;;5123767;27;21331;-82
2023/06/16 02:43:07;;;;;;;4.18;3.40;;;;;;;;;;5127178;27;20463;-83
2023/06/16 02:45:36;;;;;;;4.07;3.53;;;;;;;;;;5126750;27;20389;-82
2023/06/16 02:48:04;;;;;;;4.60;3.33;;;;;;;;;;5127060;27;20909;-82
2023/06/16 02:50:31;;;;;;;5.53;3.53;;;;;;;;;;5119861;27;20446;-83
2023/06/16 02:52:58;;;;;;;5.60;3.78;;;;;;;;;;5125403;27;20392;-83
2023/06/16 02:55:27;;;;;;;4.83;3.60;;;;;;;;;;5126101;27;20380;-82
2023/06/16 02:57:55;;;;;;;4.88;3.35;;;;;;;;;;5126539;27;20389;-83
2023/06/16 03:00:23;;;;;;;5.77;3.70;;;;;;;;;;5134095;27;20380;-83
2023/06/16 03:02:50;;;;;;;4.18;3.50;;;;;;;;;;5146994;27;20907;-82
2023/06/16 03:05:19;;;;;;;5.45;3.60;;;;;;;;;;5128864;27;20883;-82
2023/06/16 03:07:48;;;;;;;5.78;3.88;;;;;;;;;;5146966;27;20395;-82
2023/06/16 03:10:16;;;;;;;4.80;3.50;;;;;;;;;;5128760;27;20399;-83
2023/06/16 03:12:44;;;;;;;4.85;3.80;;;;;;;;;;5125185;27;23480;-82
2023/06/16 03:15:12;;;;;;;4.70;3.50;;;;;;;;;;5126033;27;20403;-83
2023/06/16 03:17:40;;;;;;;4.23;3.83;;;;;;;;;;5125659;27;20408;-83
2023/06/16 03:20:07;;;;;;;5.13;3.58;;;;;;;;;;5125751;27;20460;-83
2023/06/16 03:22:35;;;;;;;5.43;3.63;;;;;;;;;;5123543;27;20396;-83
2023/06/16 03:25:02;;;;;;;4.97;3.85;;;;;;;;;;5121555;27;20393;-83
2023/06/16 03:27:30;;;;;;;4.43;3.70;;;;;;;;;;5125884;27;20407;-83
2023/06/16 03:29:57;;;;;;;5.57;3.60;;;;;;;;;;5126332;27;20403;-84
2023/06/16 03:32:27;;;;;;;4.95;3.65;;;;;;;;;;5122650;27;20405;-83
2023/06/16 03:34:55;;;;;;;5.47;3.85;;;;;;;;;;5108392;27;20743;-83
2023/06/16 03:37:22;;;;;;;4.20;3.80;;;;;;;;;;5122315;27;20484;-83
2023/06/16 03:39:53;;;;;;;4.22;3.70;;;;;;;;;;5126114;27;20381;-83
2023/06/16 03:42:21;;;;;;;6.88;3.75;;;;;;;;;;5124854;27;20393;-84
2023/06/16 03:44:49;;;;;;;6.53;3.65;;;;;;;;;;5124058;27;20385;-83
2023/06/16 03:47:19;;;;;;;4.32;3.50;;;;;;;;;;5125894;27;20393;-83
2023/06/16 03:49:46;;;;;;;4.53;3.50;;;;;;;;;;5121389;27;20397;-83
2023/06/16 03:52:13;;;;;;;7.13;3.55;;;;;;;;;;5125644;27;20404;-83
2023/06/16 03:54:41;;;;;;;4.88;3.50;;;;;;;;;;5104888;28;20404;-83
2023/06/16 03:57:08;;;;;;;7.10;3.73;;;;;;;;;;5126155;27;21385;-82
2023/06/16 03:59:36;;;;;;;5.78;3.83;;;;;;;;;;5135291;27;20391;-83
2023/06/16 04:02:08;;;;;;;4.30;3.90;;;;;;;;;;5146075;27;20905;-82
2023/06/16 04:04:36;;;;;;;7.00;4.15;;;;;;;;;;5150093;27;20393;-81
2023/06/16 04:07:04;;;;;;;5.82;4.03;;;;;;;;;;5137576;27;20881;-82
2023/06/16 04:09:31;;;;;;;4.25;3.85;;;;;;;;;;5149316;27;20402;-84
2023/06/16 04:11:59;;;;;;;8.55;4.22;;;;;;;;;;5148038;27;20415;-84
2023/06/16 04:14:26;;;;;;;5.13;3.90;;;;;;;;;;5123870;27;20402;-84
2023/06/16 04:16:54;;;;;;;6.38;4.07;;;;;;;;;;5153174;27;20383;-84
2023/06/16 04:19:26;;;;;;;5.60;4.28;;;;;;;;;;5168753;27;20376;-85
2023/06/16 04:21:54;;;;;;;8.65;3.72;;;;;;;;;;5172055;27;20416;-85
2023/06/16 04:24:21;;;;;;;5.78;4.03;;;;;;;;;;5142286;28;20384;-85
2023/06/16 04:26:49;;;;;;;7.22;4.30;;;;;;;;;;5134724;28;20392;-85
2023/06/16 04:29:20;;;;;;;6.25;4.20;;;;;;;;;;5136133;27;20391;-85
2023/06/16 04:31:51;;;;;;;4.50;4.07;;;;;;;;;;5121231;28;20431;-86
2023/06/16 04:34:19;;;;;;;7.63;4.00;;;;;;;;;;5128638;27;20806;-86
2023/06/16 04:36:46;;;;;;;4.45;3.97;;;;;;;;;;5122158;27;20491;-85
2023/06/16 04:39:14;;;;;;;4.27;3.87;;;;;;;;;;5126570;27;20385;-85
2023/06/16 04:41:42;;;;;;;5.57;3.83;;;;;;;;;;5107922;28;20393;-84
2023/06/16 04:44:10;;;;;;;4.40;4.00;;;;;;;;;;5121825;27;20400;-88
2023/06/16 04:46:40;;;;;;;8.35;3.90;;;;;;;;;;5105656;28;20926;-86
2023/06/16 04:49:14;;;;;;;6.32;3.95;;;;;;;;;;5119853;27;20424;-83
2023/06/16 04:51:41;;;;;;;6.45;4.00;;;;;;;;;;5124769;28;20397;-83
2023/06/16 04:54:08;;;;;;;5.25;4.00;;;;;;;;;;5124693;27;20404;-83
2023/06/16 04:56:37;;;;;;;5.13;4.25;;;;;;;;;;5118333;28;20393;-84
2023/06/16 04:59:05;;;;;;;6.35;3.80;;;;;;;;;;5122059;27;20387;-82
2023/06/16 05:01:32;;;;;;;5.85;3.80;;;;;;;;;;5141575;27;20403;-82
2023/06/16 05:04:01;;;;;;;8.85;4.10;;;;;;;;;;5138728;27;20476;-87
2023/06/16 05:06:28;;;;;;;8.50;4.20;;;;;;;;;;5123160;28;20401;-83
2023/06/16 05:08:56;;;;;;;8.82;4.85;;;;;;;;;;5124126;27;20467;-85
2023/06/16 05:11:25;;;;;;;15.45;5.32;;;;;;;;;;5104416;28;20502;-83
2023/06/16 05:13:54;;;;;;;12.02;5.30;;;;;;;;;;5098960;28;20456;-85
2023/06/16 05:16:21;;;;;;;10.60;5.25;;;;;;;;;;5108656;27;20396;-86
2023/06/16 05:18:48;;;;;;;10.83;5.60;;;;;;;;;;5128100;27;20401;-85
2023/06/16 05:21:16;;;;;;;9.32;5.35;;;;;;;;;;5128987;27;20393;-86
2023/06/16 05:23:43;;;;;;;11.13;6.35;;;;;;;;;;5128738;27;20744;-86
2023/06/16 05:26:10;;;;;;;9.45;5.38;;;;;;;;;;5125232;27;20394;-85
2023/06/16 05:28:38;;;;;;;9.43;5.70;;;;;;;;;;5129264;27;20401;-86
2023/06/16 05:31:05;;;;;;;11.57;6.13;;;;;;;;;;5135858;27;20440;-89
2023/06/16 05:33:32;;;;;;;9.68;5.88;;;;;;;;;;5129962;27;20412;-87
2023/06/16 05:36:00;;;;;;;11.10;5.60;;;;;;;;;;5124159;27;20464;-87
2023/06/16 05:38:27;;;;;;;16.98;5.65;;;;;;;;;;5093293;22;20769;-85
2023/06/16 05:40:55;;;;;;;10.93;5.30;;;;;;;;;;5084147;22;20421;-88
2023/06/16 05:47:46;;;;;;;11.27;6.60;;;;;;;;;;5069279;22;20413;-54
2023/06/16 05:50:16;;;;;;;7.15;5.50;;;;;;;;;;5067109;28;20416;-55
2023/06/16 05:52:48;;;;;;;9.02;5.68;;;;;;;;;;5084731;28;20400;-54
2023/06/16 05:55:19;;;;;;;11.07;5.85;;;;;;;;;;5089412;28;20797;-54
2023/06/16 05:57:51;;;;;;;7.90;6.20;;;;;;;;;;5089569;28;20380;-54
2023/06/16 06:00:26;;;;;;;10.93;6.15;;;;;;;;;;5070239;28;20401;-54
2023/06/16 06:03:27;;;;;;;8.88;5.55;;;;;;;;;;5069151;28;20418;-54
2023/06/16 06:06:01;;;;;;;10.38;5.85;;;;;;;;;;5069006;28;20392;-54
2023/06/16 06:08:45;;;;;;;9.43;5.60;;;;;;;;;;5035882;28;20403;-54
2023/06/16 06:11:16;;;;;;;8.40;5.13;;;;;;;;;;5049005;28;20990;-55
2023/06/16 06:13:45;;;;;;;8.35;5.05;;;;;;;;;;5046921;28;20890;-56
2023/06/16 06:16:17;;;;;;;6.18;5.30;;;;;;;;;;5049271;28;20395;-55
2023/06/16 06:18:47;;;;;;;8.85;5.30;;;;;;;;;;5057365;28;20393;-56
2023/06/16 06:21:21;;;;;;;8.57;5.47;;;;;;;;;;5069242;28;20417;-55
2023/06/16 06:23:53;;;;;;;10.18;5.53;;;;;;;;;;5065506;28;20432;-55
2023/06/16 06:26:23;;;;;;;9.10;5.10;;;;;;;;;;5055853;28;20388;-54
2023/06/16 06:28:56;;;;;;;8.10;4.72;;;;;;;;;;5063365;28;20390;-54
2023/06/16 06:31:26;;;;;;;9.00;4.97;;;;;;;;;;5059558;28;21022;-54
2023/06/16 06:33:57;;;;;;;10.90;5.70;;;;;;;;;;5055781;28;20404;-54
2023/06/16 06:36:27;;;;;;;8.10;5.72;;;;;;;;;;5044936;28;20387;-54
2023/06/16 06:39:11;;;;;;;8.15;6.35;;;;;;;;;;5029230;28;20406;-54
2023/06/16 06:41:42;;;;;;;9.43;6.00;;;;;;;;;;5059071;28;20390;-55
2023/06/16 06:44:16;;;;;;;12.93;6.03;;;;;;;;;;5050863;28;20396;-54
2023/06/16 06:46:47;;;;;;;7.13;6.38;;;;;;;;;;5063191;28;20404;-54
2023/06/16 06:49:18;;;;;;;7.67;6.10;;;;;;;;;;5065833;28;20413;-54
2023/06/16 06:52:02;;;;;;;11.45;5.97;;;;;;;;;;5067711;28;20498;-54
2023/06/16 06:54:34;;;;;;;6.85;5.40;;;;;;;;;;5064927;28;20482;-54
2023/06/16 06:57:07;;;;;;;6.95;5.40;;;;;;;;;;5055010;28;20394;-54
2023/06/16 06:59:40;;;;;;;7.80;5.23;;;;;;;;;;5067431;28;20386;-54
2023/06/16 07:02:08;;;;;;;8.60;4.88;;;;;;;;;;5062934;28;20820;-54
2023/06/16 07:04:40;;;;;;;9.70;5.25;;;;;;;;;;5047896;28;20390;-54
2023/06/16 07:07:13;;;;;;;6.33;5.30;;;;;;;;;;5066414;28;20472;-54
2023/06/16 07:09:45;;;;;;;6.60;4.82;;;;;;;;;;5058374;28;20474;-54
2023/06/16 07:12:16;;;;;;;7.27;4.87;;;;;;;;;;5067312;28;20409;-54
2023/06/16 07:14:49;;;;;;;7.40;5.10;;;;;;;;;;5056643;28;20424;-54
2023/06/16 07:17:39;;;;;;;7.77;4.87;;;;;;;;;;5059887;28;20396;-54
2023/06/16 07:20:10;;;;;;;7.22;4.68;;;;;;;;;;5040610;28;20501;-54
2023/06/16 07:22:42;;;;;;;6.75;5.13;;;;;;;;;;5045180;28;20394;-54
2023/06/16 07:25:12;;;;;;;5.68;4.75;;;;;;;;;;5064936;28;20402;-54
2023/06/16 07:27:43;;;;;;;5.72;4.63;;;;;;;;;;5055946;28;20405;-54
2023/06/16 07:30:18;;;;;;;6.15;4.50;;;;;;;;;;5049404;28;20862;-54
2023/06/16 07:32:49;;;;;;;6.80;4.88;;;;;;;;;;5064196;28;20747;-54
2023/06/16 07:35:22;;;;;;;9.90;4.95;;;;;;;;;;5067164;28;20382;-54
2023/06/16 07:37:53;;;;;;;5.65;4.60;;;;;;;;;;5066223;28;20393;-54
2023/06/16 07:40:23;;;;;;;7.03;4.78;;;;;;;;;;5065005;28;20394;-54
2023/06/16 07:42:53;;;;;;;8.40;4.60;;;;;;;;;;5064365;28;20398;-53
2023/06/16 07:45:24;;;;;;;7.93;4.68;;;;;;;;;;5066634;28;20459;-54
2023/06/16 07:47:56;;;;;;;6.70;4.55;;;;;;;;;;5066385;28;20409;-54
2023/06/16 07:50:27;;;;;;;7.53;4.80;;;;;;;;;;5055033;28;20398;-54
2023/06/16 07:52:59;;;;;;;7.28;4.60;;;;;;;;;;5059522;28;20449;-54
2023/06/16 07:55:30;;;;;;;10.45;5.32;;;;;;;;;;5067167;28;20460;-54
2023/06/16 07:58:00;;;;;;;11.27;5.25;;;;;;;;;;5067090;28;20459;-54
2023/06/16 08:00:34;;;;;;;6.28;4.72;;;;;;;;;;5061909;28;20801;-54
2023/06/16 08:03:10;;;;;;;9.05;5.20;;;;;;;;;;5066643;28;20719;-54
2023/06/16 08:05:40;;;;;;;8.40;4.70;;;;;;;;;;5068014;28;20856;-54
2023/06/16 08:08:10;;;;;;;8.10;5.10;;;;;;;;;;5055803;28;20439;-54
2023/06/16 08:10:42;;;;;;;7.30;5.32;;;;;;;;;;5065826;28;20447;-54
2023/06/16 08:13:12;;;;;;;6.32;4.70;;;;;;;;;;5066529;28;20948;-54
2023/06/16 08:15:45;;;;;;;11.20;4.95;;;;;;;;;;5067308;28;20753;-54
2023/06/16 08:18:17;;;;;;;5.70;4.20;;;;;;;;;;5066322;28;20405;-54
2023/06/16 08:20:47;;;;;;;5.00;4.47;;;;;;;;;;5062938;28;20404;-54
2023/06/16 08:23:17;;;;;;;5.50;4.22;;;;;;;;;;5047537;28;20390;-54
2023/06/16 08:25:47;;;;;;;6.65;4.57;;;;;;;;;;5035982;28;20396;-54
2023/06/16 08:28:18;;;;;;;8.23;4.85;;;;;;;;;;5045806;28;20409;-54
2023/06/16 08:30:55;;;;;;;5.47;4.03;;;;;;;;;;5066128;28;20389;-54
2023/06/16 08:33:26;;;;;;;7.10;4.10;;;;;;;;;;5049732;28;20412;-54
2023/06/16 08:35:57;;;;;;;5.43;4.28;;;;;;;;;;5065647;28;20422;-53
2023/06/16 08:38:27;;;;;;;5.90;4.30;;;;;;;;;;5061052;28;20398;-54
2023/06/16 08:40:57;;;;;;;5.95;4.00;;;;;;;;;;5064588;28;20830;-54
2023/06/16 08:43:28;;;;;;;5.00;4.00;;;;;;;;;;5045689;28;20393;-54
2023/06/16 08:46:00;;;;;;;5.85;4.40;;;;;;;;;;5067004;28;20862;-54
2023/06/16 08:48:52;;;;;;;4.93;3.65;;;;;;;;;;5044918;28;20510;-54
2023/06/16 08:51:25;;;;;;;6.10;4.07;;;;;;;;;;5066664;28;20401;-54
2023/06/16 08:54:00;;;;;;;6.22;4.00;;;;;;;;;;5069959;28;20441;-54
2023/06/16 08:56:37;;;;;;;5.20;3.97;;;;;;;;;;5065924;28;20853;-54
2023/06/16 08:59:09;;;;;;;4.43;3.78;;;;;;;;;;5070473;28;20443;-54
2023/06/16 09:01:42;;;;;;;5.45;4.00;;;;;;;;;;5052629;28;20393;-54
2023/06/16 09:04:15;;;;;;;5.10;3.60;;;;;;;;;;5063607;28;20485;-54
2023/06/16 09:06:56;;;;;;;5.30;3.92;;;;;;;;;;5067708;28;20741;-53
2023/06/16 09:09:28;;;;;;;4.47;3.67;;;;;;;;;;5054857;28;20402;-54
2023/06/16 09:12:13;;;;;;;5.85;3.80;;;;;;;;;;5063394;28;20887;-55
2023/06/16 09:14:48;;;;;;;7.40;3.63;;;;;;;;;;5049301;28;20411;-55
2023/06/16 09:17:31;;;;;;;5.90;3.50;;;;;;;;;;5050413;28;21060;-54
2023/06/16 09:20:09;;;;;;;4.88;3.50;;;;;;;;;;5074018;28;20387;-54
2023/06/16 09:22:39;;;;;;;4.18;3.50;;;;;;;;;;5076319;28;20620;-54
2023/06/16 09:25:15;;;;;;;4.85;3.40;;;;;;;;;;5030746;28;20387;-54
2023/06/16 09:27:45;;;;;;;4.00;3.58;;;;;;;;;;5049799;28;20388;-54
2023/06/16 09:30:16;;;;;;;6.90;3.72;;;;;;;;;;5038717;28;20397;-53
2023/06/16 09:32:50;;;;;;;7.00;3.83;;;;;;;;;;5048590;28;20410;-53
2023/06/16 09:35:24;;;;;;;6.50;4.32;;;;;;;;;;5032758;28;20467;-54
2023/06/16 09:38:00;;;;;;;4.93;3.60;;;;;;;;;;5031240;28;20457;-53
2023/06/16 09:40:35;;;;;;;5.40;3.53;;;;;;;;;;5030477;28;20913;-54
2023/06/16 09:43:10;;;;;;;4.10;3.70;;;;;;;;;;5049599;28;20403;-55
2023/06/16 09:45:44;;;;;;;4.90;3.70;;;;;;;;;;5032729;28;20388;-54
2023/06/16 09:48:15;;;;;;;5.95;3.90;;;;;;;;;;5024398;28;20411;-54
2023/06/16 09:50:46;;;;;;;5.03;3.72;;;;;;;;;;5027150;28;20409;-55
2023/06/16 09:53:22;;;;;;;5.72;4.05;;;;;;;;;;5029672;28;20496;-55
2023/06/16 09:55:58;;;;;;;4.88;4.03;;;;;;;;;;5029058;28;20396;-55
2023/06/16 09:58:35;;;;;;;5.05;3.78;;;;;;;;;;5026947;28;20397;-55
2023/06/16 10:01:10;;;;;;;4.63;3.93;;;;;;;;;;5027551;28;20718;-54
2023/06/16 10:03:41;;;;;;;10.30;4.10;;;;;;;;;;5027962;28;20730;-54
2023/06/16 10:06:22;;;;;;;6.93;4.40;;;;;;;;;;5028821;28;20407;-55
2023/06/16 10:08:54;;;;;;;5.33;4.10;;;;;;;;;;5029086;28;20381;-54
2023/06/16 10:11:33;;;;;;;7.60;3.97;;;;;;;;;;5040288;28;20852;-54
2023/06/16 10:14:13;;;;;;;6.28;3.97;;;;;;;;;;5046937;28;20493;-53
2023/06/16 10:16:49;;;;;;;5.18;4.18;;;;;;;;;;5048347;28;20414;-55
2023/06/16 10:19:22;;;;;;;8.27;4.22;;;;;;;;;;5050243;28;20384;-54
2023/06/16 10:21:54;;;;;;;5.03;3.83;;;;;;;;;;5069138;28;20389;-54
2023/06/16 10:24:26;;;;;;;6.05;3.60;;;;;;;;;;5063742;28;20468;-54
2023/06/16 10:26:56;;;;;;;6.23;3.93;;;;;;;;;;5068926;28;20390;-54
2023/06/16 10:29:29;;;;;;;8.05;4.05;;;;;;;;;;5068491;28;20406;-54
2023/06/16 10:32:11;;;;;;;11.23;3.95;;;;;;;;;;5051957;28;20471;-54
2023/06/16 10:34:51;;;;;;;4.45;3.72;;;;;;;;;;5065505;28;20410;-54
2023/06/16 10:37:23;;;;;;;5.60;3.90;;;;;;;;;;5066816;28;20394;-54
2023/06/16 10:39:58;;;;;;;10.60;4.10;;;;;;;;;;5052444;28;20929;-53
2023/06/16 10:42:35;;;;;;;6.15;3.45;;;;;;;;;;5049369;28;20440;-54
2023/06/16 10:45:28;;;;;;;4.73;4.10;;;;;;;;;;5068680;28;20510;-54
2023/06/16 10:48:11;;;;;;;5.03;3.83;;;;;;;;;;5083236;28;20396;-53
2023/06/16 10:50:59;;;;;;;5.70;3.88;;;;;;;;;;5068759;28;20538;-54
2023/06/16 10:53:39;;;;;;;5.90;3.67;;;;;;;;;;5068629;28;20405;-53
2023/06/16 10:56:11;;;;;;;5.55;3.70;;;;;;;;;;5051806;28;20708;-54
2023/06/16 10:58:54;;;;;;;5.03;4.28;;;;;;;;;;5065634;28;20425;-54
2023/06/16 11:01:28;;;;;;;7.43;4.13;;;;;;;;;;5066346;28;20902;-54
2023/06/16 11:04:06;;;;;;;5.83;4.23;;;;;;;;;;5067610;28;20409;-54
2023/06/16 11:07:02;;;;;;;4.93;4.18;;;;;;;;;;5064757;28;20836;-53
2023/06/16 11:10:00;;;;;;;5.10;4.03;;;;;;;;;;5068068;28;20774;-54
2023/06/16 11:12:32;;;;;;;5.72;3.88;;;;;;;;;;5062062;28;20393;-54
2023/06/16 11:15:04;;;;;;;5.55;3.90;;;;;;;;;;5067209;28;20402;-54
2023/06/16 11:17:38;;;;;;;5.93;4.28;;;;;;;;;;5067846;28;20390;-54
2023/06/16 11:20:11;;;;;;;4.70;3.88;;;;;;;;;;5075877;28;20626;-53
2023/06/16 11:22:46;;;;;;;4.05;3.65;;;;;;;;;;5085183;28;20389;-54
2023/06/16 11:25:18;;;;;;;5.03;4.10;;;;;;;;;;5085404;28;20396;-54
2023/06/16 11:27:51;;;;;;;4.63;4.05;;;;;;;;;;5088051;28;20388;-54
2023/06/16 11:30:22;;;;;;;5.82;4.38;;;;;;;;;;5086835;28;20377;-54
2023/06/16 11:32:52;;;;;;;7.20;3.90;;;;;;;;;;5087160;28;20403;-53
2023/06/16 11:35:33;;;;;;;8.23;3.97;;;;;;;;;;5087938;28;20958;-53
2023/06/16 11:38:05;;;;;;;6.47;4.00;;;;;;;;;;5085685;28;20392;-54
2023/06/16 11:40:38;;;;;;;5.40;4.23;;;;;;;;;;5085120;28;20392;-54
2023/06/16 11:43:07;;;;;;;5.80;4.00;;;;;;;;;;5087487;28;20404;-54
2023/06/16 11:45:37;;;;;;;4.40;3.80;;;;;;;;;;5088033;28;20695;-54
2023/06/16 11:48:10;;;;;;;5.57;4.00;;;;;;;;;;5087244;28;20705;-53
2023/06/16 11:50:42;;;;;;;4.82;3.90;;;;;;;;;;5082518;28;20397;-54
2023/06/16 11:53:16;;;;;;;4.15;3.75;;;;;;;;;;5070900;28;20393;-54
2023/06/16 11:55:50;;;;;;;4.47;4.07;;;;;;;;;;5050656;28;20397;-53
2023/06/16 11:58:21;;;;;;;5.78;4.07;;;;;;;;;;5048147;28;20398;-54
2023/06/16 12:01:00;;;;;;;5.45;4.03;;;;;;;;;;5065283;28;20397;-54
2023/06/16 12:03:36;;;;;;;5.87;4.07;;;;;;;;;;5036096;28;20398;-54
2023/06/16 12:06:27;;;;;;;7.40;3.78;;;;;;;;;;5050219;28;20417;-54
2023/06/16 12:09:03;;;;;;;5.22;3.90;;;;;;;;;;5067223;28;20386;-54
2023/06/16 12:11:35;;;;;;;5.70;4.30;;;;;;;;;;5066494;28;20386;-54
2023/06/16 12:14:06;;;;;;;4.55;3.72;;;;;;;;;;5064953;28;20459;-53
2023/06/16 12:16:36;;;;;;;4.28;3.88;;;;;;;;;;5064756;28;20389;-53
2023/06/16 12:19:08;;;;;;;5.13;3.70;;;;;;;;;;5067765;28;20703;-54
2023/06/16 12:21:40;;;;;;;4.28;3.88;;;;;;;;;;5087819;28;20394;-54
2023/06/16 12:24:11;;;;;;;4.63;4.18;;;;;;;;;;5087114;28;20399;-53
2023/06/16 12:26:45;;;;;;;4.40;4.00;;;;;;;;;;5068709;28;20400;-53
2023/06/16 12:29:22;;;;;;;5.80;4.15;;;;;;;;;;5091656;28;20400;-54
2023/06/16 12:32:02;;;;;;;4.25;3.83;;;;;;;;;;5090039;28;20457;-53
2023/06/16 12:34:35;;;;;;;4.78;4.30;;;;;;;;;;5088181;28;20460;-54
2023/06/16 12:37:11;;;;;;;4.45;3.67;;;;;;;;;;5072112;28;20392;-54
2023/06/16 12:39:43;;;;;;;5.03;3.83;;;;;;;;;;5074322;28;20388;-54
2023/06/16 12:42:15;;;;;;;5.57;4.20;;;;;;;;;;5091317;28;20416;-53
2023/06/16 12:44:52;;;;;;;6.00;4.20;;;;;;;;;;5089458;28;20599;-53
2023/06/16 12:47:25;;;;;;;5.43;4.00;;;;;;;;;;5074026;28;20910;-54
2023/06/16 12:49:55;;;;;;;4.15;3.75;;;;;;;;;;5071619;28;20406;-54
2023/06/16 12:52:27;;;;;;;6.20;4.00;;;;;;;;;;5057393;28;20399;-54
2023/06/16 12:54:56;;;;;;;4.65;3.95;;;;;;;;;;5051197;28;20720;-55
2023/06/16 12:57:29;;;;;;;4.07;3.70;;;;;;;;;;5050529;28;20380;-53
2023/06/16 13:00:02;;;;;;;4.80;3.38;;;;;;;;;;5061885;28;20689;-54
2023/06/16 13:02:30;;;;;;;4.75;3.70;;;;;;;;;;5064928;28;20402;-53
2023/06/16 13:05:00;;;;;;;3.88;3.25;;;;;;;;;;5070289;28;20393;-54
2023/06/16 13:07:33;;;;;;;3.97;3.60;;;;;;;;;;5053475;28;20455;-53
2023/06/16 13:10:05;;;;;;;3.85;3.55;;;;;;;;;;5070715;28;20394;-54
2023/06/16 13:12:36;;;;;;;3.72;3.40;;;;;;;;;;5063555;28;20393;-54
2023/06/16 13:15:07;;;;;;;3.75;3.45;;;;;;;;;;5052755;28;20445;-53
2023/06/16 13:17:43;;;;;;;3.50;3.20;;;;;;;;;;5069862;28;20855;-54
2023/06/16 13:20:12;;;;;;;3.90;3.60;;;;;;;;;;5079290;28;20377;-53
2023/06/16 13:22:44;;;;;;;3.75;3.45;;;;;;;;;;5087404;28;20412;-53
2023/06/16 13:25:15;;;;;;;5.32;3.50;;;;;;;;;;5088013;28;20385;-53
2023/06/16 13:27:49;;;;;;;4.03;3.40;;;;;;;;;;5090045;28;20384;-54
2023/06/16 13:30:18;;;;;;;3.63;3.33;;;;;;;;;;5090092;28;20979;-54
2023/06/16 13:32:50;;;;;;;3.90;3.30;;;;;;;;;;5089123;28;20400;-54
2023/06/16 13:35:23;;;;;;;3.60;3.30;;;;;;;;;;5073188;28;20940;-54
2023/06/16 13:38:00;;;;;;;5.27;3.63;;;;;;;;;;5087098;28;20400;-54
2023/06/16 13:40:32;;;;;;;3.88;3.10;;;;;;;;;;5087554;28;20396;-53
2023/06/16 13:43:03;;;;;;;3.20;2.95;;;;;;;;;;5089842;28;20388;-54
2023/06/16 13:45:34;;;;;;;3.72;3.42;;;;;;;;;;5090053;28;20389;-54
2023/06/16 13:48:05;;;;;;;3.55;3.25;;;;;;;;;;5089770;28;20407;-54
2023/06/16 13:50:36;;;;;;;3.80;3.50;;;;;;;;;;5085293;28;20399;-54
2023/06/16 13:53:07;;;;;;;3.90;3.60;;;;;;;;;;5052997;28;20395;-53
2023/06/16 13:55:40;;;;;;;4.18;3.38;;;;;;;;;;5054922;28;20494;-54
2023/06/16 13:58:12;;;;;;;3.80;3.50;;;;;;;;;;5069632;28;20386;-54
2023/06/16 14:00:41;;;;;;;3.87;3.57;;;;;;;;;;5062462;28;20989;-54
2023/06/16 14:03:17;;;;;;;3.35;3.13;;;;;;;;;;5069320;28;20827;-54
2023/06/16 14:05:50;;;;;;;3.90;3.28;;;;;;;;;;5069693;28;20394;-54
2023/06/16 14:08:20;;;;;;;3.30;3.00;;;;;;;;;;5068985;28;20390;-54
2023/06/16 14:10:55;;;;;;;3.55;3.25;;;;;;;;;;5068165;28;20393;-54
2023/06/16 14:13:27;;;;;;;3.47;3.17;;;;;;;;;;5067203;28;20950;-54
2023/06/16 14:15:59;;;;;;;3.42;3.13;;;;;;;;;;5069318;28;20402;-54
2023/06/16 14:18:31;;;;;;;3.90;3.47;;;;;;;;;;5066022;28;20378;-54
2023/06/16 14:21:03;;;;;;;4.13;3.45;;;;;;;;;;5085028;28;20384;-54
2023/06/16 14:23:33;;;;;;;3.28;2.97;;;;;;;;;;5088508;28;20368;-54
2023/06/16 14:26:04;;;;;;;3.50;3.20;;;;;;;;;;5087436;28;20396;-54
2023/06/16 14:28:34;;;;;;;3.40;3.10;;;;;;;;;;5086853;28;20466;-54
2023/06/16 14:31:06;;;;;;;3.42;3.13;;;;;;;;;;5089538;28;20398;-54
2023/06/16 14:33:38;;;;;;;3.50;3.20;;;;;;;;;;5088729;28;20404;-54
2023/06/16 14:36:08;;;;;;;3.47;3.17;;;;;;;;;;5088749;28;20385;-54
2023/06/16 14:38:40;;;;;;;3.42;3.13;;;;;;;;;;5083584;28;20396;-54
2023/06/16 14:41:12;;;;;;;3.45;3.15;;;;;;;;;;5089578;28;20389;-54
2023/06/16 14:43:43;;;;;;;3.00;2.80;;;;;;;;;;5089101;28;20377;-54
2023/06/16 14:46:16;;;;;;;3.30;3.10;;;;;;;;;;5090063;28;20388;-54
2023/06/16 14:48:44;;;;;;;3.40;3.10;;;;;;;;;;5085357;28;20464;-53
2023/06/16 14:51:17;;;;;;;3.45;3.15;;;;;;;;;;5088155;28;20384;-54
2023/06/16 14:53:47;;;;;;;3.25;2.95;;;;;;;;;;5048066;28;20403;-54
2023/06/16 14:56:19;;;;;;;3.53;3.28;;;;;;;;;;5048505;28;20398;-54
2023/06/16 14:58:54;;;;;;;3.28;3.08;;;;;;;;;;5048128;28;20387;-54
2023/06/16 15:01:28;;;;;;;3.15;2.95;;;;;;;;;;5046396;28;20495;-54
2023/06/16 15:04:00;;;;;;;3.25;3.00;;;;;;;;;;5048242;28;20716;-54
2023/06/16 15:06:32;;;;;;;3.35;3.15;;;;;;;;;;5045371;28;20384;-54
2023/06/16 15:09:02;;;;;;;3.60;3.30;;;;;;;;;;5047764;28;21019;-54
2023/06/16 15:11:34;;;;;;;3.50;3.20;;;;;;;;;;5031118;28;20442;-54
2023/06/16 15:14:06;;;;;;;3.92;3.40;;;;;;;;;;5045521;28;20403;-54